sensor_id;sensor_type;location;lat;lon;timestamp;temperature;humidity
1337;DHT22;662;48.814;9.318;2022-11-20T00:00:54;8.70;76.40
1337;DHT22;662;48.814;9.318;2022-11-20T00:03:19;8.70;76.50
1337;DHT22;662;48.814;9.318;2022-11-20T00:05:45;8.60;76.30
1337;DHT22;662;48.814;9.318;2022-11-20T00:08:12;8.60;76.40
1337;DHT22;662;48.814;9.318;2022-11-20T00:10:38;8.60;76.40
1337;DHT22;662;48.814;9.318;2022-11-20T00:13:04;8.60;76.30
1337;DHT22;662;48.814;9.318;2022-11-20T00:15:30;8.60;76.30
1337;DHT22;662;48.814;9.318;2022-11-20T00:17:55;8.60;76.30
1337;DHT22;662;48.814;9.318;2022-11-20T00:20:21;8.60;76.30
1337;DHT22;662;48.814;9.318;2022-11-20T00:22:47;8.60;76.30
1337;DHT22;662;48.814;9.318;2022-11-20T00:25:12;8.60;76.30
1337;DHT22;662;48.814;9.318;2022-11-20T00:27:38;8.60;76.30
1337;DHT22;662;48.814;9.318;2022-11-20T00:30:05;8.50;76.30
1337;DHT22;662;48.814;9.318;2022-11-20T00:32:31;8.60;76.40
1337;DHT22;662;48.814;9.318;2022-11-20T00:34:56;8.50;76.40
1337;DHT22;662;48.814;9.318;2022-11-20T00:37:22;8.60;76.60
1337;DHT22;662;48.814;9.318;2022-11-20T00:39:47;8.50;76.50
1337;DHT22;662;48.814;9.318;2022-11-20T00:42:13;8.50;76.50
1337;DHT22;662;48.814;9.318;2022-11-20T00:44:39;8.50;76.60
1337;DHT22;662;48.814;9.318;2022-11-20T00:47:04;8.50;76.70
1337;DHT22;662;48.814;9.318;2022-11-20T00:49:30;8.50;76.70
1337;DHT22;662;48.814;9.318;2022-11-20T00:51:56;8.50;76.80
1337;DHT22;662;48.814;9.318;2022-11-20T00:54:21;8.50;77.50
1337;DHT22;662;48.814;9.318;2022-11-20T00:56:47;8.50;76.80
1337;DHT22;662;48.814;9.318;2022-11-20T00:59:13;8.50;76.80
1337;DHT22;662;48.814;9.318;2022-11-20T01:01:38;8.50;76.80
1337;DHT22;662;48.814;9.318;2022-11-20T01:04:04;8.50;76.80
1337;DHT22;662;48.814;9.318;2022-11-20T01:06:32;8.50;76.80
1337;DHT22;662;48.814;9.318;2022-11-20T01:09:00;8.50;76.90
1337;DHT22;662;48.814;9.318;2022-11-20T01:11:29;8.50;76.90
1337;DHT22;662;48.814;9.318;2022-11-20T01:13:57;8.50;76.90
1337;DHT22;662;48.814;9.318;2022-11-20T01:16:25;8.50;76.90
1337;DHT22;662;48.814;9.318;2022-11-20T01:18:52;8.50;76.90
1337;DHT22;662;48.814;9.318;2022-11-20T01:21:27;8.50;77.00
1337;DHT22;662;48.814;9.318;2022-11-20T01:23:53;8.50;77.10
1337;DHT22;662;48.814;9.318;2022-11-20T01:26:21;8.50;77.10
1337;DHT22;662;48.814;9.318;2022-11-20T01:28:48;8.50;77.20
1337;DHT22;662;48.814;9.318;2022-11-20T01:31:19;8.50;77.30
1337;DHT22;662;48.814;9.318;2022-11-20T01:33:46;8.50;77.30
1337;DHT22;662;48.814;9.318;2022-11-20T01:36:14;8.50;77.30
1337;DHT22;662;48.814;9.318;2022-11-20T01:38:39;8.50;77.40
1337;DHT22;662;48.814;9.318;2022-11-20T01:41:06;8.50;77.60
1337;DHT22;662;48.814;9.318;2022-11-20T01:43:32;8.40;77.50
1337;DHT22;662;48.814;9.318;2022-11-20T01:51:42;8.40;77.50
1337;DHT22;662;48.814;9.318;2022-11-20T01:54:13;8.40;77.50
1337;DHT22;662;48.814;9.318;2022-11-20T01:56:42;8.40;77.60
1337;DHT22;662;48.814;9.318;2022-11-20T01:59:11;8.40;77.60
1337;DHT22;662;48.814;9.318;2022-11-20T02:01:39;8.30;77.50
1337;DHT22;662;48.814;9.318;2022-11-20T02:04:06;8.40;78.20
1337;DHT22;662;48.814;9.318;2022-11-20T02:06:36;8.30;77.50
1337;DHT22;662;48.814;9.318;2022-11-20T02:09:04;8.30;77.50
1337;DHT22;662;48.814;9.318;2022-11-20T02:11:30;8.30;77.50
1337;DHT22;662;48.814;9.318;2022-11-20T02:13:56;8.30;77.60
1337;DHT22;662;48.814;9.318;2022-11-20T02:16:28;8.30;77.60
1337;DHT22;662;48.814;9.318;2022-11-20T02:18:56;8.30;77.60
1337;DHT22;662;48.814;9.318;2022-11-20T02:26:53;8.30;77.60
1337;DHT22;662;48.814;9.318;2022-11-20T02:29:29;8.40;77.80
1337;DHT22;662;48.814;9.318;2022-11-20T02:31:56;8.30;77.70
1337;DHT22;662;48.814;9.318;2022-11-20T02:34:24;8.40;77.70
1337;DHT22;662;48.814;9.318;2022-11-20T02:36:51;8.40;77.60
1337;DHT22;662;48.814;9.318;2022-11-20T02:39:19;8.40;77.60
1337;DHT22;662;48.814;9.318;2022-11-20T02:41:45;8.40;77.50
1337;DHT22;662;48.814;9.318;2022-11-20T02:44:12;8.40;77.40
1337;DHT22;662;48.814;9.318;2022-11-20T02:46:37;8.40;78.00
1337;DHT22;662;48.814;9.318;2022-11-20T02:49:04;8.40;77.30
1337;DHT22;662;48.814;9.318;2022-11-20T02:51:30;8.40;77.20
1337;DHT22;662;48.814;9.318;2022-11-20T02:53:56;8.40;77.20
1337;DHT22;662;48.814;9.318;2022-11-20T02:56:22;8.40;77.20
1337;DHT22;662;48.814;9.318;2022-11-20T02:58:48;8.40;77.20
1337;DHT22;662;48.814;9.318;2022-11-20T03:01:14;8.50;77.20
1337;DHT22;662;48.814;9.318;2022-11-20T03:03:39;8.50;77.10
1337;DHT22;662;48.814;9.318;2022-11-20T03:06:05;8.50;77.00
1337;DHT22;662;48.814;9.318;2022-11-20T03:08:31;8.50;76.80
1337;DHT22;662;48.814;9.318;2022-11-20T03:10:56;8.50;76.70
1337;DHT22;662;48.814;9.318;2022-11-20T03:13:26;8.50;76.50
1337;DHT22;662;48.814;9.318;2022-11-20T03:15:52;8.50;76.50
1337;DHT22;662;48.814;9.318;2022-11-20T03:18:18;8.50;76.30
1337;DHT22;662;48.814;9.318;2022-11-20T03:20:43;8.50;76.10
1337;DHT22;662;48.814;9.318;2022-11-20T03:23:09;8.40;75.60
1337;DHT22;662;48.814;9.318;2022-11-20T03:25:34;8.40;75.50
1337;DHT22;662;48.814;9.318;2022-11-20T03:28:00;8.40;75.60
1337;DHT22;662;48.814;9.318;2022-11-20T03:30:26;8.40;75.40
1337;DHT22;662;48.814;9.318;2022-11-20T03:32:53;8.30;75.10
1337;DHT22;662;48.814;9.318;2022-11-20T03:35:19;8.30;75.10
1337;DHT22;662;48.814;9.318;2022-11-20T03:37:44;8.30;75.00
1337;DHT22;662;48.814;9.318;2022-11-20T03:40:11;8.30;74.80
1337;DHT22;662;48.814;9.318;2022-11-20T03:42:37;8.30;75.30
1337;DHT22;662;48.814;9.318;2022-11-20T03:45:16;8.30;74.60
1337;DHT22;662;48.814;9.318;2022-11-20T03:47:43;8.30;74.50
1337;DHT22;662;48.814;9.318;2022-11-20T03:50:10;8.30;74.60
1337;DHT22;662;48.814;9.318;2022-11-20T03:52:37;8.30;74.40
1337;DHT22;662;48.814;9.318;2022-11-20T03:55:04;8.20;74.00
1337;DHT22;662;48.814;9.318;2022-11-20T03:57:30;8.20;73.80
1337;DHT22;662;48.814;9.318;2022-11-20T03:59:55;8.20;73.70
1337;DHT22;662;48.814;9.318;2022-11-20T04:02:21;8.10;73.70
1337;DHT22;662;48.814;9.318;2022-11-20T04:04:47;8.20;73.90
1337;DHT22;662;48.814;9.318;2022-11-20T04:07:12;8.20;73.90
1337;DHT22;662;48.814;9.318;2022-11-20T04:09:38;8.20;73.90
1337;DHT22;662;48.814;9.318;2022-11-20T04:12:04;8.20;73.70
1337;DHT22;662;48.814;9.318;2022-11-20T04:14:30;8.10;73.40
1337;DHT22;662;48.814;9.318;2022-11-20T04:16:55;8.10;73.40
1337;DHT22;662;48.814;9.318;2022-11-20T04:19:21;8.10;73.50
1337;DHT22;662;48.814;9.318;2022-11-20T04:21:47;8.10;73.40
1337;DHT22;662;48.814;9.318;2022-11-20T04:24:12;8.00;73.20
1337;DHT22;662;48.814;9.318;2022-11-20T04:26:38;8.00;73.20
1337;DHT22;662;48.814;9.318;2022-11-20T04:29:04;8.00;73.10
1337;DHT22;662;48.814;9.318;2022-11-20T04:31:32;8.00;73.00
1337;DHT22;662;48.814;9.318;2022-11-20T04:34:03;8.00;72.80
1337;DHT22;662;48.814;9.318;2022-11-20T04:36:30;8.00;72.80
1337;DHT22;662;48.814;9.318;2022-11-20T04:38:57;8.00;72.70
1337;DHT22;662;48.814;9.318;2022-11-20T04:41:26;8.00;72.80
1337;DHT22;662;48.814;9.318;2022-11-20T04:43:55;8.00;72.90
1337;DHT22;662;48.814;9.318;2022-11-20T04:46:26;8.00;72.90
1337;DHT22;662;48.814;9.318;2022-11-20T04:48:52;8.00;72.80
1337;DHT22;662;48.814;9.318;2022-11-20T04:51:18;8.00;72.60
1337;DHT22;662;48.814;9.318;2022-11-20T04:53:44;7.90;72.40
1337;DHT22;662;48.814;9.318;2022-11-20T04:56:11;8.00;72.60
1337;DHT22;662;48.814;9.318;2022-11-20T04:58:38;8.00;72.80
1337;DHT22;662;48.814;9.318;2022-11-20T05:03:34;8.10;72.90
1337;DHT22;662;48.814;9.318;2022-11-20T05:06:02;8.10;72.90
1337;DHT22;662;48.814;9.318;2022-11-20T05:08:28;8.10;72.80
1337;DHT22;662;48.814;9.318;2022-11-20T05:10:54;8.10;72.50
1337;DHT22;662;48.814;9.318;2022-11-20T05:13:19;8.10;72.20
1337;DHT22;662;48.814;9.318;2022-11-20T05:15:45;8.10;72.20
1337;DHT22;662;48.814;9.318;2022-11-20T05:18:10;8.10;72.20
1337;DHT22;662;48.814;9.318;2022-11-20T05:20:36;8.10;72.10
1337;DHT22;662;48.814;9.318;2022-11-20T05:23:02;8.20;72.20
1337;DHT22;662;48.814;9.318;2022-11-20T05:25:28;8.20;72.10
1337;DHT22;662;48.814;9.318;2022-11-20T05:27:53;8.20;72.00
1337;DHT22;662;48.814;9.318;2022-11-20T05:30:19;8.20;71.80
1337;DHT22;662;48.814;9.318;2022-11-20T05:32:45;8.20;71.90
1337;DHT22;662;48.814;9.318;2022-11-20T05:35:10;8.20;71.80
1337;DHT22;662;48.814;9.318;2022-11-20T05:37:36;8.20;71.90
1337;DHT22;662;48.814;9.318;2022-11-20T05:40:01;8.30;72.00
1337;DHT22;662;48.814;9.318;2022-11-20T05:42:30;8.20;71.90
1337;DHT22;662;48.814;9.318;2022-11-20T05:45:00;8.30;72.00
1337;DHT22;662;48.814;9.318;2022-11-20T05:47:28;8.30;71.80
1337;DHT22;662;48.814;9.318;2022-11-20T05:49:54;8.20;71.60
1337;DHT22;662;48.814;9.318;2022-11-20T05:52:20;8.20;71.70
1337;DHT22;662;48.814;9.318;2022-11-20T05:54:45;8.20;71.70
1337;DHT22;662;48.814;9.318;2022-11-20T05:57:11;8.20;71.90
1337;DHT22;662;48.814;9.318;2022-11-20T05:59:36;8.20;71.90
1337;DHT22;662;48.814;9.318;2022-11-20T06:02:02;8.20;71.70
1337;DHT22;662;48.814;9.318;2022-11-20T06:04:28;8.20;71.70
1337;DHT22;662;48.814;9.318;2022-11-20T06:06:54;8.20;71.70
1337;DHT22;662;48.814;9.318;2022-11-20T06:09:19;8.20;71.70
1337;DHT22;662;48.814;9.318;2022-11-20T06:11:45;8.20;71.80
1337;DHT22;662;48.814;9.318;2022-11-20T06:14:10;8.20;71.90
1337;DHT22;662;48.814;9.318;2022-11-20T06:16:36;8.20;71.90
1337;DHT22;662;48.814;9.318;2022-11-20T06:19:02;8.20;71.90
1337;DHT22;662;48.814;9.318;2022-11-20T06:21:27;8.30;71.80
1337;DHT22;662;48.814;9.318;2022-11-20T06:23:53;8.30;71.70
1337;DHT22;662;48.814;9.318;2022-11-20T06:26:21;8.30;71.60
1337;DHT22;662;48.814;9.318;2022-11-20T06:28:48;8.30;71.60
1337;DHT22;662;48.814;9.318;2022-11-20T06:31:15;8.30;71.40
1337;DHT22;662;48.814;9.318;2022-11-20T06:33:42;8.30;71.40
1337;DHT22;662;48.814;9.318;2022-11-20T06:36:10;8.30;71.40
1337;DHT22;662;48.814;9.318;2022-11-20T06:38:36;8.30;71.20
1337;DHT22;662;48.814;9.318;2022-11-20T06:41:03;8.30;71.30
1337;DHT22;662;48.814;9.318;2022-11-20T06:43:29;8.30;71.20
1337;DHT22;662;48.814;9.318;2022-11-20T06:45:56;8.30;71.20
1337;DHT22;662;48.814;9.318;2022-11-20T06:48:27;8.30;71.20
1337;DHT22;662;48.814;9.318;2022-11-20T06:50:53;8.30;71.10
1337;DHT22;662;48.814;9.318;2022-11-20T06:53:19;8.30;70.80
1337;DHT22;662;48.814;9.318;2022-11-20T06:55:46;8.30;70.90
1337;DHT22;662;48.814;9.318;2022-11-20T06:58:12;8.30;70.90
1337;DHT22;662;48.814;9.318;2022-11-20T07:00:39;8.30;70.90
1337;DHT22;662;48.814;9.318;2022-11-20T07:03:09;8.40;70.90
1337;DHT22;662;48.814;9.318;2022-11-20T07:05:35;8.40;70.90
1337;DHT22;662;48.814;9.318;2022-11-20T07:08:02;8.40;70.70
1337;DHT22;662;48.814;9.318;2022-11-20T07:10:27;8.40;70.50
1337;DHT22;662;48.814;9.318;2022-11-20T07:12:54;8.40;70.40
1337;DHT22;662;48.814;9.318;2022-11-20T07:15:21;8.40;70.10
1337;DHT22;662;48.814;9.318;2022-11-20T07:17:47;8.40;70.00
1337;DHT22;662;48.814;9.318;2022-11-20T07:20:14;8.40;69.90
1337;DHT22;662;48.814;9.318;2022-11-20T07:22:39;8.40;70.10
1337;DHT22;662;48.814;9.318;2022-11-20T07:25:06;8.40;70.00
1337;DHT22;662;48.814;9.318;2022-11-20T07:27:32;8.50;70.00
1337;DHT22;662;48.814;9.318;2022-11-20T07:29:58;8.50;69.90
1337;DHT22;662;48.814;9.318;2022-11-20T07:32:23;8.50;69.80
1337;DHT22;662;48.814;9.318;2022-11-20T07:34:49;8.50;69.80
1337;DHT22;662;48.814;9.318;2022-11-20T07:37:15;8.50;69.80
1337;DHT22;662;48.814;9.318;2022-11-20T07:39:41;8.50;69.80
1337;DHT22;662;48.814;9.318;2022-11-20T07:42:07;8.50;69.80
1337;DHT22;662;48.814;9.318;2022-11-20T07:44:32;8.50;69.80
1337;DHT22;662;48.814;9.318;2022-11-20T07:46:58;8.60;69.80
1337;DHT22;662;48.814;9.318;2022-11-20T07:49:24;8.60;69.70
1337;DHT22;662;48.814;9.318;2022-11-20T07:51:50;8.60;69.60
1337;DHT22;662;48.814;9.318;2022-11-20T07:54:18;8.60;69.60
1337;DHT22;662;48.814;9.318;2022-11-20T07:56:44;8.70;69.60
1337;DHT22;662;48.814;9.318;2022-11-20T07:59:09;8.80;69.50
1337;DHT22;662;48.814;9.318;2022-11-20T08:01:37;8.80;69.30
1337;DHT22;662;48.814;9.318;2022-11-20T08:04:03;8.80;69.20
1337;DHT22;662;48.814;9.318;2022-11-20T08:06:29;8.80;69.40
1337;DHT22;662;48.814;9.318;2022-11-20T08:08:54;8.90;69.80
1337;DHT22;662;48.814;9.318;2022-11-20T08:11:20;8.90;69.70
1337;DHT22;662;48.814;9.318;2022-11-20T08:14:04;8.90;69.50
1337;DHT22;662;48.814;9.318;2022-11-20T08:16:49;8.90;69.60
1337;DHT22;662;48.814;9.318;2022-11-20T08:19:17;9.00;69.70
1337;DHT22;662;48.814;9.318;2022-11-20T08:21:44;9.00;69.70
1337;DHT22;662;48.814;9.318;2022-11-20T08:24:10;9.00;69.40
1337;DHT22;662;48.814;9.318;2022-11-20T08:26:37;9.00;69.30
1337;DHT22;662;48.814;9.318;2022-11-20T08:29:04;9.00;69.20
1337;DHT22;662;48.814;9.318;2022-11-20T08:31:31;9.00;68.90
1337;DHT22;662;48.814;9.318;2022-11-20T08:33:56;9.00;68.90
1337;DHT22;662;48.814;9.318;2022-11-20T08:36:23;9.10;69.20
1337;DHT22;662;48.814;9.318;2022-11-20T08:38:50;9.20;69.20
1337;DHT22;662;48.814;9.318;2022-11-20T08:41:16;9.20;69.60
1337;DHT22;662;48.814;9.318;2022-11-20T08:43:58;9.30;68.80
1337;DHT22;662;48.814;9.318;2022-11-20T08:46:31;9.30;68.60
1337;DHT22;662;48.814;9.318;2022-11-20T08:48:59;9.40;68.80
1337;DHT22;662;48.814;9.318;2022-11-20T08:51:25;9.40;68.70
1337;DHT22;662;48.814;9.318;2022-11-20T08:53:50;9.40;69.30
1337;DHT22;662;48.814;9.318;2022-11-20T08:56:17;9.40;68.50
1337;DHT22;662;48.814;9.318;2022-11-20T08:58:43;9.50;68.50
1337;DHT22;662;48.814;9.318;2022-11-20T09:01:09;9.50;68.30
1337;DHT22;662;48.814;9.318;2022-11-20T09:03:35;9.60;68.20
1337;DHT22;662;48.814;9.318;2022-11-20T09:06:03;9.70;67.80
1337;DHT22;662;48.814;9.318;2022-11-20T09:08:29;9.70;67.30
1337;DHT22;662;48.814;9.318;2022-11-20T09:10:56;9.80;67.40
1337;DHT22;662;48.814;9.318;2022-11-20T09:13:23;9.80;67.40
1337;DHT22;662;48.814;9.318;2022-11-20T09:15:56;9.80;66.70
1337;DHT22;662;48.814;9.318;2022-11-20T09:18:23;9.80;66.60
1337;DHT22;662;48.814;9.318;2022-11-20T09:20:49;9.80;66.70
1337;DHT22;662;48.814;9.318;2022-11-20T09:23:15;9.80;66.70
1337;DHT22;662;48.814;9.318;2022-11-20T09:25:41;9.80;66.80
1337;DHT22;662;48.814;9.318;2022-11-20T09:28:07;9.80;66.90
1337;DHT22;662;48.814;9.318;2022-11-20T09:30:33;9.80;66.80
1337;DHT22;662;48.814;9.318;2022-11-20T09:32:58;9.80;66.70
1337;DHT22;662;48.814;9.318;2022-11-20T09:35:24;9.80;66.60
1337;DHT22;662;48.814;9.318;2022-11-20T09:37:50;9.80;66.90
1337;DHT22;662;48.814;9.318;2022-11-20T09:40:28;9.80;66.80
1337;DHT22;662;48.814;9.318;2022-11-20T09:43:07;9.80;66.80
1337;DHT22;662;48.814;9.318;2022-11-20T09:48:21;9.80;67.20
1337;DHT22;662;48.814;9.318;2022-11-20T09:53:33;9.90;67.80
1337;DHT22;662;48.814;9.318;2022-11-20T09:56:02;9.80;67.60
1337;DHT22;662;48.814;9.318;2022-11-20T09:58:39;9.90;67.40
1337;DHT22;662;48.814;9.318;2022-11-20T10:03:50;9.90;67.90
1337;DHT22;662;48.814;9.318;2022-11-20T10:06:19;9.90;67.60
1337;DHT22;662;48.814;9.318;2022-11-20T10:14:18;9.90;67.30
1337;DHT22;662;48.814;9.318;2022-11-20T10:25:20;9.80;69.00
1337;DHT22;662;48.814;9.318;2022-11-20T10:30:21;9.70;69.30
1337;DHT22;662;48.814;9.318;2022-11-20T10:32:54;9.80;69.60
1337;DHT22;662;48.814;9.318;2022-11-20T10:35:40;9.70;69.60
1337;DHT22;662;48.814;9.318;2022-11-20T10:38:31;9.70;69.80
1337;DHT22;662;48.814;9.318;2022-11-20T10:41:01;9.70;69.90
1337;DHT22;662;48.814;9.318;2022-11-20T10:43:47;9.70;70.20
1337;DHT22;662;48.814;9.318;2022-11-20T10:46:17;9.70;71.10
1337;DHT22;662;48.814;9.318;2022-11-20T10:48:44;9.60;71.70
1337;DHT22;662;48.814;9.318;2022-11-20T10:51:40;9.50;72.20
1337;DHT22;662;48.814;9.318;2022-11-20T10:57:03;9.50;73.10
1337;DHT22;662;48.814;9.318;2022-11-20T10:59:44;9.50;73.20
1337;DHT22;662;48.814;9.318;2022-11-20T11:02:23;9.50;73.20
1337;DHT22;662;48.814;9.318;2022-11-20T11:04:51;9.50;73.50
1337;DHT22;662;48.814;9.318;2022-11-20T11:07:36;9.50;73.80
1337;DHT22;662;48.814;9.318;2022-11-20T11:10:27;9.40;73.80
1337;DHT22;662;48.814;9.318;2022-11-20T11:12:54;9.30;74.00
1337;DHT22;662;48.814;9.318;2022-11-20T11:15:30;9.30;74.20
1337;DHT22;662;48.814;9.318;2022-11-20T11:17:56;9.30;74.40
1337;DHT22;662;48.814;9.318;2022-11-20T11:20:24;9.30;74.60
1337;DHT22;662;48.814;9.318;2022-11-20T11:22:52;9.30;74.70
1337;DHT22;662;48.814;9.318;2022-11-20T11:27:47;9.40;75.00
1337;DHT22;662;48.814;9.318;2022-11-20T11:30:16;9.40;75.30
1337;DHT22;662;48.814;9.318;2022-11-20T11:32:42;9.40;75.60
1337;DHT22;662;48.814;9.318;2022-11-20T11:35:28;9.50;75.80
1337;DHT22;662;48.814;9.318;2022-11-20T11:38:06;9.60;76.00
1337;DHT22;662;48.814;9.318;2022-11-20T11:40:36;9.70;76.10
1337;DHT22;662;48.814;9.318;2022-11-20T11:43:17;9.70;75.90
1337;DHT22;662;48.814;9.318;2022-11-20T11:52:16;9.90;75.30
1337;DHT22;662;48.814;9.318;2022-11-20T11:54:20;10.00;75.00
1337;DHT22;662;48.814;9.318;2022-11-20T11:56:48;10.00;74.00
1337;DHT22;662;48.814;9.318;2022-11-20T12:00:16;10.00;73.90
1337;DHT22;662;48.814;9.318;2022-11-20T12:03:15;10.00;73.50
1337;DHT22;662;48.814;9.318;2022-11-20T12:05:59;10.00;72.90
1337;DHT22;662;48.814;9.318;2022-11-20T12:14:13;10.10;72.50
1337;DHT22;662;48.814;9.318;2022-11-20T12:16:40;10.20;72.00
1337;DHT22;662;48.814;9.318;2022-11-20T12:19:13;10.40;71.50
1337;DHT22;662;48.814;9.318;2022-11-20T12:30:01;10.80;70.40
1337;DHT22;662;48.814;9.318;2022-11-20T12:37:52;11.10;69.90
1337;DHT22;662;48.814;9.318;2022-11-20T12:40:41;11.10;69.30
1337;DHT22;662;48.814;9.318;2022-11-20T12:59:38;10.80;62.10
1337;DHT22;662;48.814;9.318;2022-11-20T13:06:10;10.80;61.90
1337;DHT22;662;48.814;9.318;2022-11-20T13:08:27;10.80;62.10
1337;DHT22;662;48.814;9.318;2022-11-20T13:16:30;10.90;60.70
1337;DHT22;662;48.814;9.318;2022-11-20T13:19:02;11.00;60.80
1337;DHT22;662;48.814;9.318;2022-11-20T13:21:37;11.00;58.70
1337;DHT22;662;48.814;9.318;2022-11-20T13:24:05;11.00;57.70
1337;DHT22;662;48.814;9.318;2022-11-20T13:26:30;11.00;57.90
1337;DHT22;662;48.814;9.318;2022-11-20T13:29:09;11.00;57.90
1337;DHT22;662;48.814;9.318;2022-11-20T13:31:39;11.00;57.50
1337;DHT22;662;48.814;9.318;2022-11-20T13:34:11;11.00;57.00
1337;DHT22;662;48.814;9.318;2022-11-20T13:36:49;10.90;56.90
1337;DHT22;662;48.814;9.318;2022-11-20T13:39:25;10.90;57.10
1337;DHT22;662;48.814;9.318;2022-11-20T13:41:57;10.90;57.10
1337;DHT22;662;48.814;9.318;2022-11-20T13:44:38;10.90;56.00
1337;DHT22;662;48.814;9.318;2022-11-20T13:47:23;10.90;55.30
1337;DHT22;662;48.814;9.318;2022-11-20T13:49:51;10.90;55.50
1337;DHT22;662;48.814;9.318;2022-11-20T13:52:48;10.90;55.60
1337;DHT22;662;48.814;9.318;2022-11-20T14:03:35;11.00;55.90
1337;DHT22;662;48.814;9.318;2022-11-20T14:06:10;11.00;55.10
1337;DHT22;662;48.814;9.318;2022-11-20T14:08:45;11.00;54.80
1337;DHT22;662;48.814;9.318;2022-11-20T14:14:04;11.00;55.60
1337;DHT22;662;48.814;9.318;2022-11-20T14:16:36;11.00;55.80
1337;DHT22;662;48.814;9.318;2022-11-20T14:21:53;11.00;56.00
1337;DHT22;662;48.814;9.318;2022-11-20T14:24:24;11.00;56.40
1337;DHT22;662;48.814;9.318;2022-11-20T14:26:50;11.00;56.70
1337;DHT22;662;48.814;9.318;2022-11-20T14:29:29;11.00;57.00
1337;DHT22;662;48.814;9.318;2022-11-20T14:31:58;10.90;56.90
1337;DHT22;662;48.814;9.318;2022-11-20T14:34:32;10.90;57.30
1337;DHT22;662;48.814;9.318;2022-11-20T14:37:00;10.80;57.30
1337;DHT22;662;48.814;9.318;2022-11-20T14:39:39;10.70;57.30
1337;DHT22;662;48.814;9.318;2022-11-20T14:42:20;10.60;57.50
1337;DHT22;662;48.814;9.318;2022-11-20T14:44:48;10.50;57.80
1337;DHT22;662;48.814;9.318;2022-11-20T14:47:18;10.50;58.10
1337;DHT22;662;48.814;9.318;2022-11-20T14:49:45;10.50;58.60
1337;DHT22;662;48.814;9.318;2022-11-20T14:52:20;10.40;58.80
1337;DHT22;662;48.814;9.318;2022-11-20T14:54:51;10.40;59.10
1337;DHT22;662;48.814;9.318;2022-11-20T15:02:41;10.30;59.60
1337;DHT22;662;48.814;9.318;2022-11-20T15:05:07;10.30;58.70
1337;DHT22;662;48.814;9.318;2022-11-20T15:07:36;10.20;58.70
1337;DHT22;662;48.814;9.318;2022-11-20T15:10:10;10.20;58.50
1337;DHT22;662;48.814;9.318;2022-11-20T15:12:48;10.10;58.40
1337;DHT22;662;48.814;9.318;2022-11-20T15:15:23;10.10;58.10
1337;DHT22;662;48.814;9.318;2022-11-20T15:17:50;10.00;58.00
1337;DHT22;662;48.814;9.318;2022-11-20T15:20:17;10.00;57.90
1337;DHT22;662;48.814;9.318;2022-11-20T15:22:43;10.00;58.00
1337;DHT22;662;48.814;9.318;2022-11-20T15:25:13;9.90;58.80
1337;DHT22;662;48.814;9.318;2022-11-20T15:27:39;9.90;59.00
1337;DHT22;662;48.814;9.318;2022-11-20T15:30:16;9.90;59.00
1337;DHT22;662;48.814;9.318;2022-11-20T15:32:42;9.80;59.30
1337;DHT22;662;48.814;9.318;2022-11-20T15:35:08;9.80;59.40
1337;DHT22;662;48.814;9.318;2022-11-20T15:37:38;9.70;59.60
1337;DHT22;662;48.814;9.318;2022-11-20T15:40:05;9.70;59.80
1337;DHT22;662;48.814;9.318;2022-11-20T15:42:31;9.70;60.00
1337;DHT22;662;48.814;9.318;2022-11-20T15:44:57;9.60;60.40
1337;DHT22;662;48.814;9.318;2022-11-20T15:47:27;9.60;60.80
1337;DHT22;662;48.814;9.318;2022-11-20T15:49:53;9.50;61.00
1337;DHT22;662;48.814;9.318;2022-11-20T15:52:18;9.50;61.30
1337;DHT22;662;48.814;9.318;2022-11-20T15:54:44;9.50;61.60
1337;DHT22;662;48.814;9.318;2022-11-20T15:57:10;9.50;61.70
1337;DHT22;662;48.814;9.318;2022-11-20T15:59:35;9.40;61.90
1337;DHT22;662;48.814;9.318;2022-11-20T16:02:15;9.40;62.10
1337;DHT22;662;48.814;9.318;2022-11-20T16:04:41;9.30;62.20
1337;DHT22;662;48.814;9.318;2022-11-20T16:07:07;9.30;62.40
1337;DHT22;662;48.814;9.318;2022-11-20T16:09:33;9.30;62.60
1337;DHT22;662;48.814;9.318;2022-11-20T16:11:58;9.30;62.80
1337;DHT22;662;48.814;9.318;2022-11-20T16:14:25;9.30;62.80
1337;DHT22;662;48.814;9.318;2022-11-20T16:17:10;9.30;62.90
1337;DHT22;662;48.814;9.318;2022-11-20T16:19:35;9.30;63.00
1337;DHT22;662;48.814;9.318;2022-11-20T16:22:01;9.30;63.10
1337;DHT22;662;48.814;9.318;2022-11-20T16:24:27;9.20;63.10
1337;DHT22;662;48.814;9.318;2022-11-20T16:26:55;9.30;63.30
1337;DHT22;662;48.814;9.318;2022-11-20T16:29:21;9.20;63.40
1337;DHT22;662;48.814;9.318;2022-11-20T16:31:47;9.20;63.50
1337;DHT22;662;48.814;9.318;2022-11-20T16:34:15;9.20;63.60
1337;DHT22;662;48.814;9.318;2022-11-20T16:36:43;9.20;63.60
1337;DHT22;662;48.814;9.318;2022-11-20T16:39:11;9.20;63.70
1337;DHT22;662;48.814;9.318;2022-11-20T16:41:36;9.20;63.80
1337;DHT22;662;48.814;9.318;2022-11-20T16:44:07;9.20;64.00
1337;DHT22;662;48.814;9.318;2022-11-20T16:46:33;9.20;64.20
1337;DHT22;662;48.814;9.318;2022-11-20T16:48:59;9.20;64.40
1337;DHT22;662;48.814;9.318;2022-11-20T16:51:29;9.20;64.60
1337;DHT22;662;48.814;9.318;2022-11-20T16:53:55;9.20;64.60
1337;DHT22;662;48.814;9.318;2022-11-20T16:56:24;9.20;64.60
1337;DHT22;662;48.814;9.318;2022-11-20T16:58:54;9.20;64.60
1337;DHT22;662;48.814;9.318;2022-11-20T17:01:21;9.20;64.60
1337;DHT22;662;48.814;9.318;2022-11-20T17:03:54;9.20;64.60
1337;DHT22;662;48.814;9.318;2022-11-20T17:06:22;9.30;64.60
1337;DHT22;662;48.814;9.318;2022-11-20T17:08:48;9.20;64.60
1337;DHT22;662;48.814;9.318;2022-11-20T17:11:17;9.30;64.70
1337;DHT22;662;48.814;9.318;2022-11-20T17:13:43;9.30;64.60
1337;DHT22;662;48.814;9.318;2022-11-20T17:16:11;9.30;64.30
1337;DHT22;662;48.814;9.318;2022-11-20T17:18:38;9.30;64.20
1337;DHT22;662;48.814;9.318;2022-11-20T17:21:05;9.30;64.50
1337;DHT22;662;48.814;9.318;2022-11-20T17:23:34;9.30;64.50
1337;DHT22;662;48.814;9.318;2022-11-20T17:26:08;9.30;64.50
1337;DHT22;662;48.814;9.318;2022-11-20T17:28:34;9.40;64.70
1337;DHT22;662;48.814;9.318;2022-11-20T17:31:06;9.30;64.70
1337;DHT22;662;48.814;9.318;2022-11-20T17:33:36;9.30;64.60
1337;DHT22;662;48.814;9.318;2022-11-20T17:36:03;9.30;64.60
1337;DHT22;662;48.814;9.318;2022-11-20T17:38:29;9.30;64.70
1337;DHT22;662;48.814;9.318;2022-11-20T17:43:28;9.30;64.60
1337;DHT22;662;48.814;9.318;2022-11-20T17:45:53;9.30;64.30
1337;DHT22;662;48.814;9.318;2022-11-20T17:48:21;9.30;64.30
1337;DHT22;662;48.814;9.318;2022-11-20T17:50:47;9.30;64.30
1337;DHT22;662;48.814;9.318;2022-11-20T17:53:12;9.30;64.20
1337;DHT22;662;48.814;9.318;2022-11-20T17:55:38;9.30;64.20
1337;DHT22;662;48.814;9.318;2022-11-20T17:58:22;9.30;64.00
1337;DHT22;662;48.814;9.318;2022-11-20T18:00:48;9.30;64.00
1337;DHT22;662;48.814;9.318;2022-11-20T18:03:13;9.30;64.00
1337;DHT22;662;48.814;9.318;2022-11-20T18:05:39;9.30;63.70
1337;DHT22;662;48.814;9.318;2022-11-20T18:08:04;9.30;63.70
1337;DHT22;662;48.814;9.318;2022-11-20T18:10:30;9.30;63.70
1337;DHT22;662;48.814;9.318;2022-11-20T18:12:56;9.30;63.50
1337;DHT22;662;48.814;9.318;2022-11-20T18:15:21;9.30;63.00
1337;DHT22;662;48.814;9.318;2022-11-20T18:17:47;9.30;63.90
1337;DHT22;662;48.814;9.318;2022-11-20T18:20:13;9.40;63.20
1337;DHT22;662;48.814;9.318;2022-11-20T18:22:38;9.40;63.20
1337;DHT22;662;48.814;9.318;2022-11-20T18:25:04;9.40;63.10
1337;DHT22;662;48.814;9.318;2022-11-20T18:27:31;9.40;62.90
1337;DHT22;662;48.814;9.318;2022-11-20T18:29:56;9.40;62.40
1337;DHT22;662;48.814;9.318;2022-11-20T18:32:22;9.40;62.30
1337;DHT22;662;48.814;9.318;2022-11-20T18:34:48;9.40;62.20
1337;DHT22;662;48.814;9.318;2022-11-20T18:37:14;9.40;62.00